createdAt,value
2022-10-11T00:00:20.975Z,100.00
2022-10-11T00:02:51.082Z,100.00
2022-10-11T00:05:18.595Z,100.00
2022-10-11T00:07:45.974Z,100.00
2022-10-11T00:10:13.329Z,100.00
2022-10-11T00:12:42.081Z,100.00
2022-10-11T00:15:12.474Z,100.00
2022-10-11T00:17:40.013Z,100.00
2022-10-11T00:20:11.460Z,100.00
2022-10-11T00:22:40.132Z,100.00
2022-10-11T00:25:09.667Z,100.00
2022-10-11T00:27:37.414Z,100.00
2022-10-11T00:30:06.210Z,100.00
2022-10-11T00:32:33.568Z,100.00
2022-10-11T00:35:01.238Z,100.00
2022-10-11T00:37:31.789Z,100.00
2022-10-11T00:39:59.605Z,100.00
2022-10-11T00:42:27.674Z,100.00
2022-10-11T00:45:34.277Z,100.00
2022-10-11T00:48:04.839Z,100.00
2022-10-11T00:50:35.687Z,100.00
2022-10-11T00:53:10.269Z,100.00
2022-10-11T00:55:43.484Z,100.00
2022-10-11T00:58:12.947Z,100.00
2022-10-11T01:00:40.485Z,100.00
2022-10-11T01:03:07.677Z,100.00
2022-10-11T01:05:38.427Z,100.00
2022-10-11T01:08:08.777Z,100.00
2022-10-11T01:10:36.690Z,100.00
2022-10-11T01:13:11.829Z,100.00
2022-10-11T01:15:46.769Z,100.00
2022-10-11T01:18:20.986Z,100.00
2022-10-11T01:20:57.108Z,100.00
2022-10-11T01:24:04.683Z,100.00
2022-10-11T01:27:06.395Z,100.00
2022-10-11T01:29:45.418Z,100.00
2022-10-11T01:32:18.069Z,100.00
2022-10-11T01:34:55.486Z,100.00
2022-10-11T01:37:30.376Z,100.00
2022-10-11T01:40:02.135Z,100.00
2022-10-11T01:42:30.869Z,100.00
2022-10-11T01:44:59.666Z,100.00
2022-10-11T01:47:28.727Z,100.00
2022-10-11T01:49:57.393Z,100.00
2022-10-11T01:52:27.493Z,100.00
2022-10-11T01:55:16.169Z,100.00
2022-10-11T01:57:55.328Z,100.00
2022-10-11T02:00:25.434Z,100.00
2022-10-11T02:03:06.074Z,100.00
2022-10-11T02:05:43.505Z,100.00
2022-10-11T02:08:19.008Z,100.00
2022-10-11T02:10:51.999Z,100.00
2022-10-11T02:13:27.175Z,100.00
2022-10-11T02:15:59.246Z,100.00
2022-10-11T02:18:35.351Z,100.00
2022-10-11T02:21:06.365Z,100.00
2022-10-11T02:23:38.063Z,100.00
2022-10-11T02:26:07.652Z,100.00
2022-10-11T02:28:38.929Z,100.00
2022-10-11T02:31:08.790Z,100.00
2022-10-11T02:33:45.420Z,100.00
2022-10-11T02:36:18.731Z,100.00
2022-10-11T02:38:53.608Z,100.00
2022-10-11T02:41:28.147Z,100.00
2022-10-11T02:44:00.469Z,100.00
2022-10-11T02:46:28.958Z,100.00
2022-10-11T02:48:59.368Z,100.00
2022-10-11T02:51:30.112Z,100.00
2022-10-11T02:53:57.605Z,100.00
2022-10-11T02:56:24.796Z,100.00
2022-10-11T02:58:51.737Z,100.00
2022-10-11T03:01:18.853Z,100.00
2022-10-11T03:03:46.803Z,100.00
2022-10-11T03:06:16.786Z,100.00
2022-10-11T03:08:43.970Z,100.00
2022-10-11T03:11:11.847Z,100.00
2022-10-11T03:13:38.823Z,100.00
2022-10-11T03:16:06.647Z,100.00
2022-10-11T03:18:33.605Z,100.00
2022-10-11T03:21:00.655Z,100.00
2022-10-11T03:23:30.709Z,100.00
2022-10-11T03:25:58.686Z,100.00
2022-10-11T03:28:26.117Z,100.00
2022-10-11T03:30:53.913Z,100.00
2022-10-11T03:33:20.958Z,100.00
2022-10-11T03:35:48.629Z,100.00
2022-10-11T03:38:18.266Z,100.00
2022-10-11T03:40:47.239Z,100.00
2022-10-11T03:43:14.406Z,100.00
2022-10-11T03:45:41.693Z,100.00
2022-10-11T03:48:10.098Z,100.00
2022-10-11T03:50:37.288Z,100.00
2022-10-11T03:53:05.732Z,100.00
2022-10-11T03:55:33.593Z,100.00
2022-10-11T03:58:03.667Z,100.00
2022-10-11T04:00:31.250Z,100.00
2022-10-11T04:02:58.382Z,100.00
2022-10-11T04:05:26.232Z,100.00
2022-10-11T04:07:53.466Z,100.00
2022-10-11T04:10:20.742Z,100.00
2022-10-11T04:12:47.815Z,100.00
2022-10-11T04:15:16.613Z,100.00
2022-10-11T04:17:43.926Z,100.00
2022-10-11T04:20:11.696Z,100.00
2022-10-11T04:22:39.210Z,100.00
2022-10-11T04:25:07.694Z,100.00
2022-10-11T04:27:36.490Z,100.00
2022-10-11T04:30:04.155Z,100.00
2022-10-11T04:32:33.423Z,100.00
2022-10-11T04:35:01.267Z,100.00
2022-10-11T04:37:29.116Z,100.00
2022-10-11T04:39:56.937Z,100.00
2022-10-11T04:42:24.499Z,100.00
2022-10-11T04:44:52.121Z,100.00
2022-10-11T04:47:19.513Z,100.00
2022-10-11T04:49:48.599Z,100.00
2022-10-11T04:52:16.473Z,100.00
2022-10-11T04:54:43.375Z,100.00
2022-10-11T04:57:11.197Z,100.00
2022-10-11T04:59:38.409Z,100.00
2022-10-11T05:02:05.984Z,100.00
2022-10-11T05:04:34.070Z,100.00
2022-10-11T05:07:02.611Z,100.00
2022-10-11T05:09:30.381Z,100.00
2022-10-11T05:11:58.235Z,100.00
2022-10-11T05:14:25.729Z,100.00
2022-10-11T05:16:53.107Z,100.00
2022-10-11T05:19:20.125Z,100.00
2022-10-11T05:21:47.698Z,100.00
2022-10-11T05:24:17.206Z,100.00
2022-10-11T05:26:44.650Z,100.00
2022-10-11T05:29:11.861Z,100.00
2022-10-11T05:31:39.703Z,100.00
2022-10-11T05:34:07.294Z,100.00
2022-10-11T05:36:34.299Z,100.00
2022-10-11T05:39:01.596Z,100.00
2022-10-11T05:41:30.069Z,100.00
2022-10-11T05:43:57.266Z,100.00
2022-10-11T05:46:24.766Z,100.00
2022-10-11T05:48:51.816Z,100.00
2022-10-11T05:51:19.004Z,100.00
2022-10-11T05:53:46.053Z,100.00
2022-10-11T05:56:19.034Z,100.00
2022-10-11T05:58:48.018Z,100.00
2022-10-11T06:01:21.304Z,100.00
2022-10-11T06:03:48.659Z,100.00
2022-10-11T06:06:16.809Z,100.00
2022-10-11T06:08:44.130Z,100.00
2022-10-11T06:11:13.411Z,100.00
2022-10-11T06:13:40.613Z,100.00
2022-10-11T06:16:10.180Z,100.00
2022-10-11T06:18:37.539Z,100.00
2022-10-11T06:21:05.065Z,100.00
2022-10-11T06:23:32.340Z,100.00
2022-10-11T06:26:00.415Z,100.00
2022-10-11T06:28:29.175Z,100.00
2022-10-11T06:30:57.117Z,100.00
2022-10-11T06:33:26.817Z,100.00
2022-10-11T06:35:58.218Z,100.00
2022-10-11T06:38:25.372Z,100.00
2022-10-11T06:40:53.600Z,100.00
2022-10-11T06:43:21.460Z,100.00
2022-10-11T06:45:48.955Z,100.00
2022-10-11T06:48:16.452Z,100.00
2022-10-11T06:50:59.591Z,100.00
2022-10-11T06:53:27.961Z,100.00
2022-10-11T06:56:03.781Z,100.00
2022-10-11T06:58:31.865Z,100.00
2022-10-11T07:01:02.885Z,100.00
2022-10-11T07:03:30.576Z,100.00
2022-10-11T07:06:02.884Z,100.00
2022-10-11T07:08:30.441Z,100.00
2022-10-11T07:11:00.716Z,100.00
2022-10-11T07:13:28.490Z,100.00
2022-10-11T07:15:56.992Z,100.00
2022-10-11T07:18:24.451Z,100.00
2022-10-11T07:20:51.817Z,100.00
2022-10-11T07:23:21.008Z,100.00
2022-10-11T07:25:48.650Z,100.00
2022-10-11T07:28:16.002Z,100.00
2022-10-11T07:30:43.679Z,100.00
2022-10-11T07:33:10.851Z,100.00
2022-10-11T07:35:39.016Z,100.00
2022-10-11T07:38:07.359Z,100.00
2022-10-11T07:40:42.497Z,100.00
2022-10-11T07:43:09.980Z,100.00
2022-10-11T07:45:38.420Z,100.00
2022-10-11T07:48:06.887Z,100.00
2022-10-11T07:50:34.715Z,100.00
2022-10-11T07:53:01.913Z,100.00
2022-10-11T07:55:29.343Z,100.00
2022-10-11T07:57:58.592Z,100.00
2022-10-11T08:00:25.794Z,100.00
2022-10-11T08:02:53.582Z,100.00
2022-10-11T08:05:21.067Z,100.00
2022-10-11T08:07:48.665Z,100.00
2022-10-11T08:10:30.923Z,100.00
2022-10-11T08:13:04.212Z,100.00
2022-10-11T08:15:31.912Z,100.00
2022-10-11T08:17:59.195Z,100.00
2022-10-11T08:20:26.555Z,100.00
2022-10-11T08:22:53.752Z,100.00
2022-10-11T08:25:21.447Z,100.00
2022-10-11T08:27:48.995Z,100.00
2022-10-11T08:30:18.390Z,100.00
2022-10-11T08:32:45.749Z,100.00
2022-10-11T08:35:13.266Z,100.00
2022-10-11T08:37:40.334Z,100.00
2022-10-11T08:40:08.715Z,100.00
2022-10-11T08:42:41.386Z,100.00
2022-10-11T08:45:19.531Z,100.00
2022-10-11T08:47:49.013Z,100.00
2022-10-11T08:50:18.583Z,100.00
2022-10-11T08:52:51.172Z,100.00
2022-10-11T08:55:24.621Z,100.00
2022-10-11T08:57:55.661Z,100.00
2022-10-11T09:00:24.507Z,100.00
2022-10-11T09:03:09.297Z,100.00
2022-10-11T09:05:42.334Z,100.00
2022-10-11T09:08:18.728Z,100.00
2022-10-11T09:10:57.722Z,100.00
2022-10-11T09:13:44.460Z,100.00
2022-10-11T09:16:22.756Z,100.00
2022-10-11T09:19:13.580Z,100.00
2022-10-11T09:21:49.888Z,100.00
2022-10-11T09:24:35.371Z,100.00
2022-10-11T09:27:14.412Z,100.00
2022-10-11T09:29:57.357Z,100.00
2022-10-11T09:32:31.092Z,100.00
2022-10-11T09:35:02.243Z,100.00
2022-10-11T09:37:37.145Z,100.00
2022-10-11T09:40:17.428Z,100.00
2022-10-11T09:42:44.861Z,100.00
2022-10-11T09:45:16.745Z,100.00
2022-10-11T09:47:44.376Z,100.00
2022-10-11T09:50:17.611Z,100.00
2022-10-11T09:52:49.437Z,100.00
2022-10-11T09:55:31.661Z,100.00
2022-10-11T09:57:58.805Z,100.00
2022-10-11T10:00:27.526Z,100.00
2022-10-11T10:02:56.113Z,100.00
2022-10-11T10:05:26.986Z,100.00
2022-10-11T10:08:05.458Z,100.00
2022-10-11T10:10:36.687Z,100.00
2022-10-11T10:13:06.439Z,100.00
2022-10-11T10:15:36.661Z,100.00
2022-10-11T10:18:05.963Z,100.00
2022-10-11T10:20:36.970Z,100.00
2022-10-11T10:23:10.974Z,100.00
2022-10-11T10:25:43.531Z,100.00
2022-10-11T10:28:24.618Z,100.00
2022-10-11T10:30:56.316Z,100.00
2022-10-11T10:33:25.260Z,100.00
2022-10-11T10:35:58.863Z,100.00
2022-10-11T10:38:29.577Z,100.00
2022-10-11T10:40:58.798Z,100.00
2022-10-11T10:43:28.630Z,100.00
2022-10-11T10:46:32.176Z,100.00
2022-10-11T10:49:34.819Z,100.00
2022-10-11T10:52:19.757Z,100.00
2022-10-11T10:54:56.285Z,100.00
2022-10-11T10:57:31.692Z,100.00
2022-10-11T11:00:12.295Z,100.00
2022-10-11T11:02:49.154Z,100.00
2022-10-11T11:05:33.277Z,100.00
2022-10-11T11:08:12.312Z,100.00
2022-10-11T11:10:49.147Z,100.00
2022-10-11T11:13:26.882Z,100.00
2022-10-11T11:16:07.233Z,100.00
2022-10-11T11:18:43.673Z,100.00
2022-10-11T11:21:37.908Z,100.00
2022-10-11T11:24:18.869Z,100.00
2022-10-11T11:26:53.278Z,100.00
2022-10-11T11:29:36.130Z,100.00
2022-10-11T11:32:17.122Z,100.00
2022-10-11T11:34:47.505Z,100.00
2022-10-11T11:37:23.738Z,100.00
2022-10-11T11:39:56.955Z,100.00
2022-10-11T11:42:28.930Z,100.00
2022-10-11T11:44:56.451Z,100.00
2022-10-11T11:47:28.138Z,100.00
2022-10-11T11:50:00.460Z,98.28
2022-10-11T11:52:34.080Z,97.23
2022-10-11T11:55:09.319Z,100.00
2022-10-11T11:57:50.404Z,100.00
2022-10-11T12:00:21.025Z,100.00
2022-10-11T12:02:53.542Z,100.00
2022-10-11T12:05:25.931Z,98.77
2022-10-11T12:07:57.732Z,100.00
2022-10-11T12:10:31.106Z,100.00
2022-10-11T12:13:18.570Z,100.00
2022-10-11T12:15:59.251Z,94.35
2022-10-11T12:18:27.189Z,95.16
2022-10-11T12:21:03.538Z,96.91
2022-10-11T12:23:46.784Z,95.37
2022-10-11T12:26:40.820Z,93.51
2022-10-11T12:29:47.971Z,94.09
2022-10-11T12:32:50.103Z,95.25
2022-10-11T12:35:39.915Z,98.90
2022-10-11T12:38:15.871Z,98.79
2022-10-11T12:40:44.634Z,100.00
2022-10-11T12:43:34.224Z,99.08
2022-10-11T12:46:39.842Z,96.72
2022-10-11T12:49:27.205Z,96.46
2022-10-11T12:52:00.633Z,99.22
2022-10-11T12:54:51.606Z,97.87
2022-10-11T12:57:46.403Z,97.89
2022-10-11T13:00:22.874Z,96.64
2022-10-11T13:02:50.366Z,97.77
2022-10-11T13:05:23.619Z,99.78
2022-10-11T13:07:52.484Z,97.94
2022-10-11T13:10:26.756Z,96.86
2022-10-11T13:12:55.280Z,92.84
2022-10-11T13:15:25.101Z,91.86
2022-10-11T13:17:59.228Z,97.73
2022-10-11T13:20:29.988Z,91.64
2022-10-11T13:22:58.773Z,92.97
2022-10-11T13:25:28.175Z,93.92
2022-10-11T13:27:58.296Z,94.84
2022-10-11T13:30:30.928Z,96.18
2022-10-11T13:32:59.430Z,97.64
2022-10-11T13:35:31.721Z,94.50
2022-10-11T13:37:59.850Z,96.81
2022-10-11T13:40:28.216Z,93.50
2022-10-11T13:42:55.919Z,94.52
2022-10-11T13:45:25.288Z,93.73
2022-10-11T13:47:55.822Z,96.05
2022-10-11T13:50:25.180Z,95.28
2022-10-11T13:52:58.175Z,93.45
2022-10-11T13:55:33.727Z,91.88
2022-10-11T13:58:03.737Z,90.36
2022-10-11T14:00:34.734Z,92.11
2022-10-11T14:03:08.695Z,90.23
2022-10-11T14:05:40.075Z,94.69
2022-10-11T14:08:21.008Z,95.93
2022-10-11T14:10:52.924Z,93.07
2022-10-11T14:13:29.540Z,89.66
2022-10-11T14:16:04.173Z,91.99
2022-10-11T14:18:51.210Z,90.72
2022-10-11T14:21:31.206Z,93.54
2022-10-11T14:23:59.905Z,94.06
2022-10-11T14:26:31.952Z,92.03
2022-10-11T14:29:02.906Z,94.51
2022-10-11T14:31:30.914Z,92.63
2022-10-11T14:34:00.716Z,94.37
2022-10-11T14:36:27.888Z,92.75
2022-10-11T14:38:55.228Z,92.16
2022-10-11T14:41:22.754Z,92.46
2022-10-11T14:43:50.269Z,93.92
2022-10-11T14:46:23.488Z,92.56
2022-10-11T14:48:56.277Z,94.98
2022-10-11T14:51:32.938Z,93.97
2022-10-11T14:54:00.870Z,95.74
2022-10-11T14:56:28.585Z,96.88
2022-10-11T14:58:56.166Z,95.55
2022-10-11T15:01:24.744Z,96.28
2022-10-11T15:03:52.497Z,98.52
2022-10-11T15:06:22.799Z,98.62
2022-10-11T15:08:52.329Z,97.53
2022-10-11T15:11:21.788Z,98.58
2022-10-11T15:13:49.816Z,99.56
2022-10-11T15:16:19.058Z,99.63
2022-10-11T15:18:47.518Z,100.00
2022-10-11T15:21:15.394Z,100.00
2022-10-11T15:23:43.169Z,100.00
2022-10-11T15:26:15.158Z,100.00
2022-10-11T15:28:43.096Z,100.00
2022-10-11T15:31:10.740Z,100.00
2022-10-11T15:33:39.377Z,100.00
2022-10-11T15:36:08.922Z,100.00
2022-10-11T15:38:37.303Z,100.00
2022-10-11T15:41:05.115Z,100.00
2022-10-11T15:43:34.914Z,100.00
2022-10-11T15:46:03.243Z,100.00
2022-10-11T15:48:31.114Z,100.00
2022-10-11T15:50:59.475Z,100.00
2022-10-11T15:53:28.513Z,100.00
2022-10-11T15:55:58.556Z,100.00
2022-10-11T15:58:28.974Z,100.00
2022-10-11T16:01:00.995Z,100.00
2022-10-11T16:03:30.735Z,100.00
2022-10-11T16:06:04.631Z,100.00
2022-10-11T16:08:33.782Z,100.00
2022-10-11T16:11:01.942Z,100.00
2022-10-11T16:13:29.455Z,100.00
2022-10-11T16:16:01.775Z,100.00
2022-10-11T16:18:34.135Z,100.00
2022-10-11T16:21:07.144Z,100.00
2022-10-11T16:23:35.522Z,100.00
2022-10-11T16:26:05.408Z,100.00
2022-10-11T16:28:33.864Z,100.00
2022-10-11T16:31:07.043Z,100.00
2022-10-11T16:33:34.904Z,100.00
2022-10-11T16:36:06.657Z,100.00
2022-10-11T16:38:36.164Z,100.00
2022-10-11T16:41:07.072Z,100.00
2022-10-11T16:43:34.584Z,100.00
2022-10-11T16:46:04.686Z,100.00
2022-10-11T16:48:32.887Z,100.00
2022-10-11T16:51:06.726Z,100.00
2022-10-11T16:53:34.655Z,100.00
2022-10-11T16:56:05.814Z,100.00
2022-10-11T16:58:33.655Z,100.00
2022-10-11T17:01:02.621Z,100.00
2022-10-11T17:03:30.572Z,100.00
2022-10-11T17:05:58.056Z,100.00
2022-10-11T17:08:25.436Z,100.00
2022-10-11T17:10:57.843Z,100.00
2022-10-11T17:13:26.272Z,100.00
2022-10-11T17:15:54.125Z,100.00
2022-10-11T17:18:24.423Z,100.00
2022-10-11T17:20:51.704Z,100.00
2022-10-11T17:23:19.205Z,100.00
2022-10-11T17:25:47.344Z,100.00
2022-10-11T17:28:14.934Z,100.00
2022-10-11T17:30:42.756Z,100.00
2022-10-11T17:33:10.264Z,100.00
2022-10-11T17:35:39.779Z,100.00
2022-10-11T17:38:07.554Z,100.00
2022-10-11T17:40:36.314Z,100.00
2022-10-11T17:43:04.635Z,100.00
2022-10-11T17:45:32.745Z,100.00
2022-10-11T17:47:59.864Z,100.00
2022-10-11T17:50:27.242Z,100.00
2022-10-11T17:52:57.906Z,100.00
2022-10-11T17:55:25.958Z,100.00
2022-10-11T17:57:54.243Z,100.00
2022-10-11T18:00:23.417Z,100.00
2022-10-11T18:02:51.695Z,100.00
2022-10-11T18:05:21.286Z,100.00
2022-10-11T18:07:53.196Z,100.00
2022-10-11T18:10:23.535Z,100.00
2022-10-11T18:12:55.223Z,100.00
2022-10-11T18:15:23.877Z,100.00
2022-10-11T18:17:51.672Z,100.00
2022-10-11T18:20:20.144Z,100.00
2022-10-11T18:22:48.275Z,100.00
2022-10-11T18:25:17.812Z,100.00
2022-10-11T18:27:47.815Z,100.00
2022-10-11T18:30:15.830Z,100.00
2022-10-11T18:32:43.063Z,100.00
2022-10-11T18:35:12.008Z,100.00
2022-10-11T18:37:40.450Z,100.00
2022-10-11T18:40:08.796Z,100.00
2022-10-11T18:42:36.767Z,100.00
2022-10-11T18:45:07.622Z,100.00
2022-10-11T18:47:35.498Z,100.00
2022-10-11T18:50:03.400Z,100.00
2022-10-11T18:52:30.700Z,100.00
2022-10-11T18:54:58.588Z,100.00
2022-10-11T18:57:26.684Z,100.00
2022-10-11T18:59:55.357Z,100.00
2022-10-11T19:02:25.092Z,100.00
2022-10-11T19:04:52.132Z,100.00
2022-10-11T19:07:20.145Z,100.00
2022-10-11T19:09:47.378Z,100.00
2022-10-11T19:12:15.543Z,100.00
2022-10-11T19:14:43.061Z,100.00
2022-10-11T19:17:10.517Z,100.00
2022-10-11T19:19:41.019Z,100.00
2022-10-11T19:22:09.585Z,100.00
2022-10-11T19:24:37.493Z,100.00
2022-10-11T19:27:06.180Z,100.00
2022-10-11T19:29:34.099Z,100.00
2022-10-11T19:32:02.603Z,100.00
2022-10-11T19:34:30.498Z,100.00
2022-10-11T19:37:00.406Z,100.00
2022-10-11T19:39:28.749Z,100.00
2022-10-11T19:41:56.331Z,100.00
2022-10-11T19:44:24.297Z,100.00
2022-10-11T19:46:53.030Z,100.00
2022-10-11T19:49:21.242Z,100.00
2022-10-11T19:51:48.779Z,100.00
2022-10-11T19:54:19.430Z,100.00
2022-10-11T19:56:47.191Z,100.00
2022-10-11T19:59:17.118Z,100.00
2022-10-11T20:01:49.588Z,100.00
2022-10-11T20:04:50.943Z,100.00
2022-10-11T20:07:08.361Z,100.00
2022-10-11T20:09:37.793Z,100.00
2022-10-11T20:12:04.954Z,100.00
2022-10-11T20:14:31.929Z,100.00
2022-10-11T20:16:59.783Z,100.00
2022-10-11T20:19:31.140Z,100.00
2022-10-11T20:22:00.420Z,100.00
2022-10-11T20:24:27.727Z,100.00
2022-10-11T20:26:56.739Z,100.00
2022-10-11T20:29:24.244Z,100.00
2022-10-11T20:31:51.831Z,100.00
2022-10-11T20:34:19.343Z,100.00
2022-10-11T20:36:49.113Z,100.00
2022-10-11T20:39:16.972Z,100.00
2022-10-11T20:41:44.456Z,100.00
2022-10-11T20:44:13.239Z,100.00
2022-10-11T20:46:40.520Z,100.00
2022-10-11T20:49:10.532Z,100.00
2022-10-11T20:51:39.963Z,100.00
2022-10-11T20:54:07.344Z,100.00
2022-10-11T20:56:35.368Z,100.00
2022-10-11T20:59:02.878Z,100.00
2022-10-11T21:01:34.594Z,100.00
2022-10-11T21:04:02.705Z,100.00
2022-10-11T21:06:31.092Z,100.00
2022-10-11T21:08:59.293Z,100.00
2022-10-11T21:11:26.747Z,100.00
2022-10-11T21:13:55.339Z,100.00
2022-10-11T21:16:22.597Z,100.00
2022-10-11T21:18:54.566Z,100.00
2022-10-11T21:21:24.342Z,100.00
2022-10-11T21:23:54.109Z,100.00
2022-10-11T21:26:21.392Z,100.00
2022-10-11T21:28:48.758Z,100.00
2022-10-11T21:31:18.553Z,100.00
2022-10-11T21:33:46.051Z,100.00
2022-10-11T21:36:17.052Z,100.00
2022-10-11T21:38:44.582Z,100.00
2022-10-11T21:41:14.154Z,100.00
2022-10-11T21:43:41.866Z,100.00
2022-10-11T21:46:10.667Z,100.00
2022-10-11T21:48:37.883Z,100.00
2022-10-11T21:51:05.805Z,100.00
2022-10-11T21:53:34.604Z,100.00
2022-10-11T21:56:02.079Z,100.00
2022-10-11T21:58:29.042Z,100.00
2022-10-11T22:00:56.480Z,100.00
2022-10-11T22:03:24.937Z,100.00
2022-10-11T22:05:52.608Z,100.00
2022-10-11T22:08:19.799Z,100.00
2022-10-11T22:10:54.720Z,100.00
2022-10-11T22:13:22.110Z,100.00
2022-10-11T22:15:49.349Z,100.00
2022-10-11T22:18:17.096Z,100.00
2022-10-11T22:20:44.628Z,100.00
2022-10-11T22:23:11.775Z,100.00
2022-10-11T22:25:40.106Z,100.00
2022-10-11T22:28:09.402Z,100.00
2022-10-11T22:30:37.283Z,100.00
2022-10-11T22:33:04.672Z,100.00
2022-10-11T22:35:37.152Z,100.00
2022-10-11T22:38:05.455Z,100.00
2022-10-11T22:40:32.819Z,100.00
2022-10-11T22:43:00.651Z,100.00
2022-10-11T22:45:30.702Z,100.00
2022-10-11T22:48:00.766Z,100.00
2022-10-11T22:50:27.974Z,100.00
2022-10-11T22:52:55.110Z,100.00
2022-10-11T22:55:22.375Z,100.00
2022-10-11T22:57:49.726Z,100.00
2022-10-11T23:00:17.410Z,100.00
2022-10-11T23:02:45.944Z,100.00
2022-10-11T23:05:13.418Z,100.00
2022-10-11T23:07:40.932Z,100.00
2022-10-11T23:10:09.457Z,100.00
2022-10-11T23:12:36.649Z,100.00
2022-10-11T23:15:04.375Z,100.00
2022-10-11T23:17:32.342Z,100.00
2022-10-11T23:20:01.741Z,100.00
2022-10-11T23:22:29.240Z,100.00
2022-10-11T23:24:56.720Z,100.00
2022-10-11T23:27:23.973Z,100.00
2022-10-11T23:29:51.332Z,100.00
2022-10-11T23:32:18.714Z,100.00
2022-10-11T23:34:46.229Z,100.00
2022-10-11T23:37:15.442Z,100.00
2022-10-11T23:39:42.731Z,100.00
2022-10-11T23:42:09.825Z,100.00
2022-10-11T23:44:37.002Z,100.00
2022-10-11T23:47:03.849Z,100.00
2022-10-11T23:49:31.010Z,100.00
2022-10-11T23:51:58.096Z,100.00
2022-10-11T23:54:26.890Z,100.00
2022-10-11T23:56:54.128Z,100.00
2022-10-11T23:59:21.161Z,100.00
